sensor_id;sensor_type;location;lat;lon;timestamp;P1;durP1;ratioP1;P2;durP2;ratioP2
10191;SDS011;17580;50.850;4.504;2022-08-19T00:01:19;4.73;;;4.43;;
10191;SDS011;17580;50.850;4.504;2022-08-19T00:03:46;4.67;;;4.40;;
10191;SDS011;17580;50.850;4.504;2022-08-19T00:06:13;4.63;;;4.30;;
10191;SDS011;17580;50.850;4.504;2022-08-19T00:08:42;4.10;;;3.90;;
10191;SDS011;17580;50.850;4.504;2022-08-19T00:11:10;4.83;;;4.53;;
10191;SDS011;17580;50.850;4.504;2022-08-19T00:13:37;4.93;;;4.63;;
10191;SDS011;17580;50.850;4.504;2022-08-19T00:16:04;5.60;;;5.07;;
10191;SDS011;17580;50.850;4.504;2022-08-19T00:18:32;6.03;;;5.53;;
10191;SDS011;17580;50.850;4.504;2022-08-19T00:20:59;6.67;;;6.17;;
10191;SDS011;17580;50.850;4.504;2022-08-19T00:23:26;6.70;;;6.10;;
10191;SDS011;17580;50.850;4.504;2022-08-19T00:25:55;6.97;;;6.47;;
10191;SDS011;17580;50.850;4.504;2022-08-19T00:28:22;7.67;;;6.97;;
10191;SDS011;17580;50.850;4.504;2022-08-19T00:30:49;11.73;;;10.53;;
10191;SDS011;17580;50.850;4.504;2022-08-19T00:33:16;14.00;;;12.60;;
10191;SDS011;17580;50.850;4.504;2022-08-19T00:35:43;14.70;;;13.30;;
10191;SDS011;17580;50.850;4.504;2022-08-19T00:38:10;17.87;;;15.97;;
10191;SDS011;17580;50.850;4.504;2022-08-19T00:40:37;18.90;;;17.00;;
10191;SDS011;17580;50.850;4.504;2022-08-19T00:43:09;16.87;;;15.10;;
10191;SDS011;17580;50.850;4.504;2022-08-19T00:45:38;16.87;;;15.27;;
10191;SDS011;17580;50.850;4.504;2022-08-19T00:48:06;16.97;;;15.17;;
10191;SDS011;17580;50.850;4.504;2022-08-19T00:50:33;17.10;;;15.50;;
10191;SDS011;17580;50.850;4.504;2022-08-19T00:53:01;16.47;;;14.87;;
10191;SDS011;17580;50.850;4.504;2022-08-19T00:55:29;16.87;;;15.17;;
10191;SDS011;17580;50.850;4.504;2022-08-19T00:57:58;18.93;;;16.93;;
10191;SDS011;17580;50.850;4.504;2022-08-19T01:00:29;19.50;;;17.50;;
10191;SDS011;17580;50.850;4.504;2022-08-19T01:02:57;22.40;;;19.73;;
10191;SDS011;17580;50.850;4.504;2022-08-19T01:05:26;25.50;;;20.57;;
10191;SDS011;17580;50.850;4.504;2022-08-19T01:07:55;20.83;;;18.63;;
10191;SDS011;17580;50.850;4.504;2022-08-19T01:10:24;21.33;;;17.47;;
10191;SDS011;17580;50.850;4.504;2022-08-19T01:12:52;21.47;;;18.17;;
10191;SDS011;17580;50.850;4.504;2022-08-19T01:15:23;19.37;;;17.20;;
10191;SDS011;17580;50.850;4.504;2022-08-19T01:17:54;21.90;;;18.37;;
10191;SDS011;17580;50.850;4.504;2022-08-19T01:20:23;24.70;;;21.47;;
10191;SDS011;17580;50.850;4.504;2022-08-19T01:22:53;23.17;;;19.37;;
10191;SDS011;17580;50.850;4.504;2022-08-19T01:25:22;22.77;;;20.30;;
10191;SDS011;17580;50.850;4.504;2022-08-19T01:27:52;23.67;;;20.97;;
10191;SDS011;17580;50.850;4.504;2022-08-19T01:30:21;26.00;;;23.23;;
10191;SDS011;17580;50.850;4.504;2022-08-19T01:32:50;27.07;;;22.90;;
10191;SDS011;17580;50.850;4.504;2022-08-19T01:35:17;23.70;;;21.20;;
10191;SDS011;17580;50.850;4.504;2022-08-19T01:37:45;23.37;;;20.87;;
10191;SDS011;17580;50.850;4.504;2022-08-19T01:40:16;24.33;;;21.60;;
10191;SDS011;17580;50.850;4.504;2022-08-19T01:42:45;25.17;;;20.93;;
10191;SDS011;17580;50.850;4.504;2022-08-19T01:45:12;24.97;;;21.00;;
10191;SDS011;17580;50.850;4.504;2022-08-19T01:47:39;25.47;;;21.33;;
10191;SDS011;17580;50.850;4.504;2022-08-19T01:50:07;25.23;;;20.60;;
10191;SDS011;17580;50.850;4.504;2022-08-19T01:52:37;27.40;;;22.10;;
10191;SDS011;17580;50.850;4.504;2022-08-19T01:55:04;24.67;;;21.53;;
10191;SDS011;17580;50.850;4.504;2022-08-19T01:57:34;23.70;;;20.83;;
10191;SDS011;17580;50.850;4.504;2022-08-19T02:00:03;24.40;;;19.57;;
10191;SDS011;17580;50.850;4.504;2022-08-19T02:02:31;22.87;;;19.90;;
10191;SDS011;17580;50.850;4.504;2022-08-19T02:04:58;22.50;;;19.50;;
10191;SDS011;17580;50.850;4.504;2022-08-19T02:07:25;24.83;;;19.77;;
10191;SDS011;17580;50.850;4.504;2022-08-19T02:09:53;19.87;;;17.07;;
10191;SDS011;17580;50.850;4.504;2022-08-19T02:12:21;18.53;;;15.90;;
10191;SDS011;17580;50.850;4.504;2022-08-19T02:14:49;18.10;;;16.00;;
10191;SDS011;17580;50.850;4.504;2022-08-19T02:17:16;17.07;;;15.17;;
10191;SDS011;17580;50.850;4.504;2022-08-19T02:19:43;15.73;;;14.13;;
10191;SDS011;17580;50.850;4.504;2022-08-19T02:22:10;16.13;;;14.30;;
10191;SDS011;17580;50.850;4.504;2022-08-19T02:24:37;18.60;;;15.10;;
10191;SDS011;17580;50.850;4.504;2022-08-19T02:27:04;15.40;;;13.90;;
10191;SDS011;17580;50.850;4.504;2022-08-19T02:29:31;14.90;;;13.13;;
10191;SDS011;17580;50.850;4.504;2022-08-19T02:31:59;15.67;;;13.87;;
10191;SDS011;17580;50.850;4.504;2022-08-19T02:34:26;14.83;;;13.33;;
10191;SDS011;17580;50.850;4.504;2022-08-19T02:36:53;15.13;;;13.67;;
10191;SDS011;17580;50.850;4.504;2022-08-19T02:39:20;15.60;;;14.10;;
10191;SDS011;17580;50.850;4.504;2022-08-19T02:41:46;14.87;;;13.40;;
10191;SDS011;17580;50.850;4.504;2022-08-19T02:44:14;13.77;;;12.47;;
10191;SDS011;17580;50.850;4.504;2022-08-19T02:46:41;11.47;;;10.37;;
10191;SDS011;17580;50.850;4.504;2022-08-19T02:49:10;14.53;;;13.13;;
10191;SDS011;17580;50.850;4.504;2022-08-19T02:51:38;12.00;;;10.80;;
10191;SDS011;17580;50.850;4.504;2022-08-19T02:54:08;11.97;;;10.77;;
10191;SDS011;17580;50.850;4.504;2022-08-19T02:56:36;11.63;;;10.53;;
10191;SDS011;17580;50.850;4.504;2022-08-19T02:59:04;13.00;;;11.80;;
10191;SDS011;17580;50.850;4.504;2022-08-19T03:01:36;13.60;;;12.20;;
10191;SDS011;17580;50.850;4.504;2022-08-19T03:04:05;13.53;;;12.33;;
10191;SDS011;17580;50.850;4.504;2022-08-19T03:06:36;13.30;;;12.00;;
10191;SDS011;17580;50.850;4.504;2022-08-19T03:09:03;12.77;;;11.43;;
10191;SDS011;17580;50.850;4.504;2022-08-19T03:11:31;12.93;;;11.63;;
10191;SDS011;17580;50.850;4.504;2022-08-19T03:13:59;15.70;;;13.30;;
10191;SDS011;17580;50.850;4.504;2022-08-19T03:16:27;12.07;;;10.87;;
10191;SDS011;17580;50.850;4.504;2022-08-19T03:18:56;13.07;;;11.77;;
10191;SDS011;17580;50.850;4.504;2022-08-19T03:21:26;12.07;;;10.90;;
10191;SDS011;17580;50.850;4.504;2022-08-19T03:23:57;11.13;;;9.93;;
10191;SDS011;17580;50.850;4.504;2022-08-19T03:26:26;11.10;;;9.90;;
10191;SDS011;17580;50.850;4.504;2022-08-19T03:28:53;12.97;;;11.67;;
10191;SDS011;17580;50.850;4.504;2022-08-19T03:31:21;11.43;;;10.43;;
10191;SDS011;17580;50.850;4.504;2022-08-19T03:33:49;12.20;;;10.83;;
10191;SDS011;17580;50.850;4.504;2022-08-19T03:36:17;10.83;;;9.73;;
10191;SDS011;17580;50.850;4.504;2022-08-19T03:38:48;10.73;;;9.73;;
10191;SDS011;17580;50.850;4.504;2022-08-19T03:41:18;10.17;;;9.17;;
10191;SDS011;17580;50.850;4.504;2022-08-19T03:43:47;12.33;;;10.00;;
10191;SDS011;17580;50.850;4.504;2022-08-19T03:46:15;13.47;;;12.07;;
10191;SDS011;17580;50.850;4.504;2022-08-19T03:48:45;10.40;;;9.47;;
10191;SDS011;17580;50.850;4.504;2022-08-19T03:51:17;14.07;;;12.60;;
10191;SDS011;17580;50.850;4.504;2022-08-19T03:53:46;13.77;;;12.37;;
10191;SDS011;17580;50.850;4.504;2022-08-19T03:56:14;13.43;;;12.03;;
10191;SDS011;17580;50.850;4.504;2022-08-19T03:58:43;13.70;;;12.30;;
10191;SDS011;17580;50.850;4.504;2022-08-19T04:01:11;14.40;;;12.77;;
10191;SDS011;17580;50.850;4.504;2022-08-19T04:03:39;14.03;;;10.90;;
10191;SDS011;17580;50.850;4.504;2022-08-19T04:06:11;14.87;;;12.37;;
10191;SDS011;17580;50.850;4.504;2022-08-19T04:08:39;10.90;;;9.70;;
10191;SDS011;17580;50.850;4.504;2022-08-19T04:11:07;13.73;;;11.70;;
10191;SDS011;17580;50.850;4.504;2022-08-19T04:13:34;13.30;;;11.83;;
10191;SDS011;17580;50.850;4.504;2022-08-19T04:16:03;12.07;;;10.83;;
10191;SDS011;17580;50.850;4.504;2022-08-19T04:18:30;15.67;;;13.17;;
10191;SDS011;17580;50.850;4.504;2022-08-19T04:20:59;15.43;;;12.50;;
10191;SDS011;17580;50.850;4.504;2022-08-19T04:23:26;15.40;;;13.80;;
10191;SDS011;17580;50.850;4.504;2022-08-19T04:25:53;13.80;;;12.27;;
10191;SDS011;17580;50.850;4.504;2022-08-19T04:28:21;12.90;;;11.47;;
10191;SDS011;17580;50.850;4.504;2022-08-19T04:30:50;15.00;;;13.43;;
10191;SDS011;17580;50.850;4.504;2022-08-19T04:33:20;13.93;;;12.30;;
10191;SDS011;17580;50.850;4.504;2022-08-19T04:35:51;15.70;;;13.73;;
10191;SDS011;17580;50.850;4.504;2022-08-19T04:38:19;14.37;;;11.33;;
10191;SDS011;17580;50.850;4.504;2022-08-19T04:40:49;16.17;;;12.30;;
10191;SDS011;17580;50.850;4.504;2022-08-19T04:43:35;18.83;;;13.93;;
10191;SDS011;17580;50.850;4.504;2022-08-19T04:46:04;13.43;;;12.03;;
10191;SDS011;17580;50.850;4.504;2022-08-19T04:48:34;12.13;;;10.20;;
10191;SDS011;17580;50.850;4.504;2022-08-19T04:51:04;12.43;;;11.13;;
10191;SDS011;17580;50.850;4.504;2022-08-19T04:53:34;12.17;;;9.63;;
10191;SDS011;17580;50.850;4.504;2022-08-19T04:56:04;13.47;;;11.57;;
10191;SDS011;17580;50.850;4.504;2022-08-19T04:58:33;11.97;;;9.67;;
10191;SDS011;17580;50.850;4.504;2022-08-19T05:01:00;13.93;;;9.93;;
10191;SDS011;17580;50.850;4.504;2022-08-19T05:03:27;12.47;;;9.80;;
10191;SDS011;17580;50.850;4.504;2022-08-19T05:05:59;15.75;;;13.07;;
10191;SDS011;17580;50.850;4.504;2022-08-19T05:08:33;12.53;;;9.87;;
10191;SDS011;17580;50.850;4.504;2022-08-19T05:11:01;19.50;;;11.90;;
10191;SDS011;17580;50.850;4.504;2022-08-19T05:13:34;19.03;;;12.50;;
10191;SDS011;17580;50.850;4.504;2022-08-19T05:16:01;14.10;;;10.23;;
10191;SDS011;17580;50.850;4.504;2022-08-19T05:18:29;14.30;;;10.97;;
10191;SDS011;17580;50.850;4.504;2022-08-19T05:21:15;12.43;;;10.63;;
10191;SDS011;17580;50.850;4.504;2022-08-19T05:24:01;11.43;;;9.47;;
10191;SDS011;17580;50.850;4.504;2022-08-19T05:26:29;15.53;;;11.27;;
10191;SDS011;17580;50.850;4.504;2022-08-19T05:28:55;14.63;;;10.63;;
10191;SDS011;17580;50.850;4.504;2022-08-19T05:31:22;14.43;;;10.87;;
10191;SDS011;17580;50.850;4.504;2022-08-19T05:33:49;13.33;;;11.93;;
10191;SDS011;17580;50.850;4.504;2022-08-19T05:36:17;15.10;;;11.37;;
10191;SDS011;17580;50.850;4.504;2022-08-19T05:38:45;23.00;;;14.53;;
10191;SDS011;17580;50.850;4.504;2022-08-19T05:41:12;24.70;;;14.50;;
10191;SDS011;17580;50.850;4.504;2022-08-19T05:43:41;14.57;;;12.23;;
10191;SDS011;17580;50.850;4.504;2022-08-19T05:46:08;12.50;;;11.20;;
10191;SDS011;17580;50.850;4.504;2022-08-19T05:48:43;14.20;;;12.00;;
10191;SDS011;17580;50.850;4.504;2022-08-19T05:51:11;12.27;;;10.97;;
10191;SDS011;17580;50.850;4.504;2022-08-19T05:53:39;16.93;;;12.17;;
10191;SDS011;17580;50.850;4.504;2022-08-19T05:56:06;14.30;;;11.13;;
10191;SDS011;17580;50.850;4.504;2022-08-19T05:58:37;14.70;;;11.27;;
10191;SDS011;17580;50.850;4.504;2022-08-19T06:01:08;13.27;;;10.57;;
10191;SDS011;17580;50.850;4.504;2022-08-19T06:03:37;13.67;;;11.10;;
10191;SDS011;17580;50.850;4.504;2022-08-19T06:06:04;11.37;;;10.17;;
10191;SDS011;17580;50.850;4.504;2022-08-19T06:08:32;16.40;;;12.17;;
10191;SDS011;17580;50.850;4.504;2022-08-19T06:11:12;10.60;;;9.50;;
10191;SDS011;17580;50.850;4.504;2022-08-19T06:13:41;10.13;;;9.10;;
10191;SDS011;17580;50.850;4.504;2022-08-19T06:16:08;10.87;;;8.80;;
10191;SDS011;17580;50.850;4.504;2022-08-19T06:18:36;11.87;;;8.87;;
10191;SDS011;17580;50.850;4.504;2022-08-19T06:21:02;9.47;;;8.57;;
10191;SDS011;17580;50.850;4.504;2022-08-19T06:23:29;8.67;;;7.30;;
10191;SDS011;17580;50.850;4.504;2022-08-19T06:25:57;12.43;;;8.47;;
10191;SDS011;17580;50.850;4.504;2022-08-19T06:28:25;9.87;;;8.87;;
10191;SDS011;17580;50.850;4.504;2022-08-19T06:30:52;10.97;;;8.40;;
10191;SDS011;17580;50.850;4.504;2022-08-19T06:33:19;11.27;;;7.97;;
10191;SDS011;17580;50.850;4.504;2022-08-19T06:35:46;9.50;;;7.47;;
10191;SDS011;17580;50.850;4.504;2022-08-19T06:38:12;6.77;;;6.07;;
10191;SDS011;17580;50.850;4.504;2022-08-19T06:40:39;8.00;;;7.07;;
10191;SDS011;17580;50.850;4.504;2022-08-19T06:43:06;8.80;;;6.30;;
10191;SDS011;17580;50.850;4.504;2022-08-19T06:45:35;5.73;;;5.13;;
10191;SDS011;17580;50.850;4.504;2022-08-19T06:48:03;9.07;;;5.70;;
10191;SDS011;17580;50.850;4.504;2022-08-19T06:50:30;5.47;;;4.93;;
10191;SDS011;17580;50.850;4.504;2022-08-19T06:52:57;7.63;;;5.60;;
10191;SDS011;17580;50.850;4.504;2022-08-19T06:55:24;6.97;;;6.27;;
10191;SDS011;17580;50.850;4.504;2022-08-19T06:57:54;8.30;;;6.43;;
10191;SDS011;17580;50.850;4.504;2022-08-19T07:00:21;8.50;;;5.80;;
10191;SDS011;17580;50.850;4.504;2022-08-19T07:02:49;7.77;;;6.03;;
10191;SDS011;17580;50.850;4.504;2022-08-19T07:05:16;10.80;;;8.07;;
10191;SDS011;17580;50.850;4.504;2022-08-19T07:07:43;7.07;;;6.17;;
10191;SDS011;17580;50.850;4.504;2022-08-19T07:10:10;5.67;;;5.07;;
10191;SDS011;17580;50.850;4.504;2022-08-19T07:12:37;7.70;;;6.07;;
10191;SDS011;17580;50.850;4.504;2022-08-19T07:15:06;6.00;;;4.93;;
10191;SDS011;17580;50.850;4.504;2022-08-19T07:17:34;6.60;;;5.03;;
10191;SDS011;17580;50.850;4.504;2022-08-19T07:20:04;7.37;;;5.10;;
10191;SDS011;17580;50.850;4.504;2022-08-19T07:22:32;6.43;;;4.90;;
10191;SDS011;17580;50.850;4.504;2022-08-19T07:24:59;9.03;;;6.47;;
10191;SDS011;17580;50.850;4.504;2022-08-19T07:27:28;6.57;;;5.77;;
10191;SDS011;17580;50.850;4.504;2022-08-19T07:29:55;6.97;;;5.10;;
10191;SDS011;17580;50.850;4.504;2022-08-19T07:32:22;5.33;;;4.83;;
10191;SDS011;17580;50.850;4.504;2022-08-19T07:34:51;7.03;;;5.50;;
10191;SDS011;17580;50.850;4.504;2022-08-19T07:37:19;22.00;;;7.83;;
10191;SDS011;17580;50.850;4.504;2022-08-19T07:39:46;6.37;;;4.90;;
10191;SDS011;17580;50.850;4.504;2022-08-19T07:42:13;5.90;;;3.90;;
10191;SDS011;17580;50.850;4.504;2022-08-19T07:44:42;6.80;;;5.67;;
10191;SDS011;17580;50.850;4.504;2022-08-19T07:47:09;5.57;;;5.07;;
10191;SDS011;17580;50.850;4.504;2022-08-19T07:49:36;6.03;;;4.77;;
10191;SDS011;17580;50.850;4.504;2022-08-19T07:52:05;5.00;;;4.50;;
10191;SDS011;17580;50.850;4.504;2022-08-19T07:54:36;5.30;;;4.63;;
10191;SDS011;17580;50.850;4.504;2022-08-19T07:57:04;4.30;;;4.00;;
10191;SDS011;17580;50.850;4.504;2022-08-19T07:59:32;10.00;;;4.83;;
10191;SDS011;17580;50.850;4.504;2022-08-19T08:01:59;5.57;;;5.00;;
10191;SDS011;17580;50.850;4.504;2022-08-19T08:04:27;5.00;;;3.77;;
10191;SDS011;17580;50.850;4.504;2022-08-19T08:07:12;4.37;;;3.97;;
10191;SDS011;17580;50.850;4.504;2022-08-19T08:09:58;8.40;;;3.80;;
10191;SDS011;17580;50.850;4.504;2022-08-19T08:12:27;4.50;;;4.13;;
10191;SDS011;17580;50.850;4.504;2022-08-19T08:14:57;4.70;;;4.20;;
10191;SDS011;17580;50.850;4.504;2022-08-19T08:17:27;5.00;;;4.57;;
10191;SDS011;17580;50.850;4.504;2022-08-19T08:19:55;5.43;;;4.43;;
10191;SDS011;17580;50.850;4.504;2022-08-19T08:22:23;4.27;;;3.97;;
10191;SDS011;17580;50.850;4.504;2022-08-19T08:25:11;3.60;;;3.37;;
10191;SDS011;17580;50.850;4.504;2022-08-19T08:27:40;4.90;;;4.47;;
10191;SDS011;17580;50.850;4.504;2022-08-19T08:30:10;4.03;;;3.53;;
10191;SDS011;17580;50.850;4.504;2022-08-19T08:32:39;4.27;;;3.97;;
10191;SDS011;17580;50.850;4.504;2022-08-19T08:35:08;8.07;;;3.80;;
10191;SDS011;17580;50.850;4.504;2022-08-19T08:37:37;4.17;;;3.87;;
10191;SDS011;17580;50.850;4.504;2022-08-19T08:40:04;5.00;;;4.00;;
10191;SDS011;17580;50.850;4.504;2022-08-19T08:42:43;5.57;;;4.80;;
10191;SDS011;17580;50.850;4.504;2022-08-19T08:45:16;5.00;;;4.47;;
10191;SDS011;17580;50.850;4.504;2022-08-19T08:47:47;3.93;;;3.53;;
10191;SDS011;17580;50.850;4.504;2022-08-19T08:50:20;11.33;;;5.23;;
10191;SDS011;17580;50.850;4.504;2022-08-19T08:52:50;5.73;;;3.90;;
10191;SDS011;17580;50.850;4.504;2022-08-19T08:55:22;5.23;;;3.80;;
10191;SDS011;17580;50.850;4.504;2022-08-19T08:57:53;3.23;;;2.93;;
10191;SDS011;17580;50.850;4.504;2022-08-19T09:00:26;4.43;;;3.27;;
10191;SDS011;17580;50.850;4.504;2022-08-19T09:02:55;4.50;;;4.00;;
10191;SDS011;17580;50.850;4.504;2022-08-19T09:05:25;4.20;;;3.43;;
10191;SDS011;17580;50.850;4.504;2022-08-19T09:08:00;3.63;;;3.33;;
10191;SDS011;17580;50.850;4.504;2022-08-19T09:10:38;4.23;;;3.30;;
10191;SDS011;17580;50.850;4.504;2022-08-19T09:13:12;3.90;;;3.43;;
10191;SDS011;17580;50.850;4.504;2022-08-19T09:15:48;4.20;;;3.67;;
10191;SDS011;17580;50.850;4.504;2022-08-19T09:18:18;3.63;;;3.33;;
10191;SDS011;17580;50.850;4.504;2022-08-19T09:20:45;4.93;;;3.40;;
10191;SDS011;17580;50.850;4.504;2022-08-19T09:23:13;5.03;;;3.97;;
10191;SDS011;17580;50.850;4.504;2022-08-19T09:25:40;4.50;;;3.53;;
10191;SDS011;17580;50.850;4.504;2022-08-19T09:28:09;5.33;;;4.00;;
10191;SDS011;17580;50.850;4.504;2022-08-19T09:30:38;4.03;;;3.63;;
10191;SDS011;17580;50.850;4.504;2022-08-19T09:33:06;4.10;;;3.70;;
10191;SDS011;17580;50.850;4.504;2022-08-19T09:35:33;5.13;;;4.07;;
10191;SDS011;17580;50.850;4.504;2022-08-19T09:38:01;3.90;;;3.50;;
10191;SDS011;17580;50.850;4.504;2022-08-19T09:40:29;4.07;;;3.70;;
10191;SDS011;17580;50.850;4.504;2022-08-19T09:42:56;3.33;;;3.03;;
10191;SDS011;17580;50.850;4.504;2022-08-19T09:45:28;4.93;;;4.20;;
10191;SDS011;17580;50.850;4.504;2022-08-19T09:47:56;3.40;;;3.10;;
10191;SDS011;17580;50.850;4.504;2022-08-19T09:50:23;7.50;;;3.87;;
10191;SDS011;17580;50.850;4.504;2022-08-19T09:52:50;5.43;;;3.47;;
10191;SDS011;17580;50.850;4.504;2022-08-19T09:55:22;6.30;;;3.60;;
10191;SDS011;17580;50.850;4.504;2022-08-19T09:57:49;4.03;;;3.60;;
10191;SDS011;17580;50.850;4.504;2022-08-19T10:00:16;3.20;;;3.00;;
10191;SDS011;17580;50.850;4.504;2022-08-19T10:02:44;3.93;;;3.17;;
10191;SDS011;17580;50.850;4.504;2022-08-19T10:05:11;4.57;;;3.47;;
10191;SDS011;17580;50.850;4.504;2022-08-19T10:07:56;6.00;;;4.00;;
10191;SDS011;17580;50.850;4.504;2022-08-19T10:10:25;4.63;;;3.93;;
10191;SDS011;17580;50.850;4.504;2022-08-19T10:12:52;6.43;;;3.10;;
10191;SDS011;17580;50.850;4.504;2022-08-19T10:15:20;3.27;;;2.97;;
10191;SDS011;17580;50.850;4.504;2022-08-19T10:17:48;4.07;;;3.50;;
10191;SDS011;17580;50.850;4.504;2022-08-19T10:20:15;3.60;;;3.30;;
10191;SDS011;17580;50.850;4.504;2022-08-19T10:22:42;3.30;;;3.00;;
10191;SDS011;17580;50.850;4.504;2022-08-19T10:25:09;3.60;;;3.30;;
10191;SDS011;17580;50.850;4.504;2022-08-19T10:27:41;3.20;;;2.90;;
10191;SDS011;17580;50.850;4.504;2022-08-19T10:30:08;3.07;;;2.87;;
10191;SDS011;17580;50.850;4.504;2022-08-19T10:32:36;3.30;;;3.10;;
10191;SDS011;17580;50.850;4.504;2022-08-19T10:35:05;2.37;;;2.27;;
10191;SDS011;17580;50.850;4.504;2022-08-19T10:37:33;3.03;;;2.50;;
10191;SDS011;17580;50.850;4.504;2022-08-19T10:40:00;3.40;;;3.10;;
10191;SDS011;17580;50.850;4.504;2022-08-19T10:42:28;3.50;;;3.20;;
10191;SDS011;17580;50.850;4.504;2022-08-19T10:44:56;4.47;;;4.07;;
10191;SDS011;17580;50.850;4.504;2022-08-19T10:47:23;3.37;;;3.17;;
10191;SDS011;17580;50.850;4.504;2022-08-19T10:49:50;3.80;;;3.50;;
10191;SDS011;17580;50.850;4.504;2022-08-19T10:52:36;3.63;;;3.43;;
10191;SDS011;17580;50.850;4.504;2022-08-19T10:55:04;3.23;;;2.97;;
10191;SDS011;17580;50.850;4.504;2022-08-19T10:57:49;3.70;;;3.40;;
10191;SDS011;17580;50.850;4.504;2022-08-19T11:00:17;3.47;;;3.27;;
10191;SDS011;17580;50.850;4.504;2022-08-19T11:02:45;4.20;;;3.80;;
10191;SDS011;17580;50.850;4.504;2022-08-19T11:05:12;4.43;;;4.03;;
10191;SDS011;17580;50.850;4.504;2022-08-19T11:07:42;4.20;;;3.90;;
10191;SDS011;17580;50.850;4.504;2022-08-19T11:10:09;7.17;;;4.07;;
10191;SDS011;17580;50.850;4.504;2022-08-19T11:12:38;4.27;;;3.97;;
10191;SDS011;17580;50.850;4.504;2022-08-19T11:15:06;5.17;;;4.67;;
10191;SDS011;17580;50.850;4.504;2022-08-19T11:17:36;5.03;;;3.77;;
10191;SDS011;17580;50.850;4.504;2022-08-19T11:20:05;4.67;;;4.27;;
10191;SDS011;17580;50.850;4.504;2022-08-19T11:22:33;5.13;;;4.73;;
10191;SDS011;17580;50.850;4.504;2022-08-19T11:25:02;5.07;;;4.57;;
10191;SDS011;17580;50.850;4.504;2022-08-19T11:27:29;11.13;;;4.70;;
10191;SDS011;17580;50.850;4.504;2022-08-19T11:29:56;5.93;;;5.47;;
10191;SDS011;17580;50.850;4.504;2022-08-19T11:32:23;6.10;;;5.50;;
10191;SDS011;17580;50.850;4.504;2022-08-19T11:34:50;5.93;;;5.53;;
10191;SDS011;17580;50.850;4.504;2022-08-19T11:37:17;5.37;;;4.90;;
10191;SDS011;17580;50.850;4.504;2022-08-19T11:39:44;5.73;;;5.33;;
10191;SDS011;17580;50.850;4.504;2022-08-19T11:42:13;5.00;;;4.60;;
10191;SDS011;17580;50.850;4.504;2022-08-19T11:44:57;5.70;;;5.30;;
10191;SDS011;17580;50.850;4.504;2022-08-19T11:47:24;5.60;;;5.20;;
10191;SDS011;17580;50.850;4.504;2022-08-19T11:49:51;6.10;;;5.43;;
10191;SDS011;17580;50.850;4.504;2022-08-19T11:52:18;6.30;;;5.80;;
10191;SDS011;17580;50.850;4.504;2022-08-19T11:54:45;9.63;;;6.03;;
10191;SDS011;17580;50.850;4.504;2022-08-19T11:57:13;6.03;;;5.53;;
10191;SDS011;17580;50.850;4.504;2022-08-19T11:59:42;9.80;;;6.07;;
10191;SDS011;17580;50.850;4.504;2022-08-19T12:02:13;5.43;;;5.00;;
10191;SDS011;17580;50.850;4.504;2022-08-19T12:04:40;7.17;;;6.47;;
10191;SDS011;17580;50.850;4.504;2022-08-19T12:07:07;6.17;;;5.50;;
10191;SDS011;17580;50.850;4.504;2022-08-19T12:09:34;5.83;;;5.33;;
10191;SDS011;17580;50.850;4.504;2022-08-19T12:12:01;5.47;;;5.07;;
10191;SDS011;17580;50.850;4.504;2022-08-19T12:14:30;5.73;;;5.33;;
10191;SDS011;17580;50.850;4.504;2022-08-19T12:16:57;4.97;;;4.60;;
10191;SDS011;17580;50.850;4.504;2022-08-19T12:19:25;4.83;;;4.53;;
10191;SDS011;17580;50.850;4.504;2022-08-19T12:21:52;5.30;;;4.83;;
10191;SDS011;17580;50.850;4.504;2022-08-19T12:24:20;5.60;;;4.63;;
10191;SDS011;17580;50.850;4.504;2022-08-19T12:26:48;4.33;;;4.03;;
10191;SDS011;17580;50.850;4.504;2022-08-19T12:29:16;4.77;;;4.37;;
10191;SDS011;17580;50.850;4.504;2022-08-19T12:31:44;5.13;;;4.30;;
10191;SDS011;17580;50.850;4.504;2022-08-19T12:34:11;3.80;;;3.50;;
10191;SDS011;17580;50.850;4.504;2022-08-19T12:36:38;4.67;;;4.27;;
10191;SDS011;17580;50.850;4.504;2022-08-19T12:39:05;6.63;;;3.77;;
10191;SDS011;17580;50.850;4.504;2022-08-19T12:41:33;4.47;;;4.00;;
10191;SDS011;17580;50.850;4.504;2022-08-19T12:44:00;5.80;;;3.40;;
10191;SDS011;17580;50.850;4.504;2022-08-19T12:46:27;4.70;;;3.13;;
10191;SDS011;17580;50.850;4.504;2022-08-19T12:48:55;3.47;;;3.27;;
10191;SDS011;17580;50.850;4.504;2022-08-19T12:51:22;3.60;;;3.40;;
10191;SDS011;17580;50.850;4.504;2022-08-19T12:53:50;3.47;;;3.17;;
10191;SDS011;17580;50.850;4.504;2022-08-19T12:56:17;4.93;;;3.47;;
10191;SDS011;17580;50.850;4.504;2022-08-19T12:58:44;4.00;;;2.97;;
10191;SDS011;17580;50.850;4.504;2022-08-19T13:01:11;3.20;;;2.77;;
10191;SDS011;17580;50.850;4.504;2022-08-19T13:03:41;3.10;;;2.80;;
10191;SDS011;17580;50.850;4.504;2022-08-19T13:06:12;2.33;;;2.23;;
10191;SDS011;17580;50.850;4.504;2022-08-19T13:08:40;3.43;;;2.67;;
10191;SDS011;17580;50.850;4.504;2022-08-19T13:11:08;2.70;;;2.50;;
10191;SDS011;17580;50.850;4.504;2022-08-19T13:13:37;2.13;;;2.03;;
10191;SDS011;17580;50.850;4.504;2022-08-19T13:16:06;2.03;;;2.00;;
10191;SDS011;17580;50.850;4.504;2022-08-19T13:18:34;2.50;;;1.63;;
10191;SDS011;17580;50.850;4.504;2022-08-19T13:21:02;2.47;;;1.90;;
10191;SDS011;17580;50.850;4.504;2022-08-19T13:23:31;3.13;;;1.80;;
10191;SDS011;17580;50.850;4.504;2022-08-19T13:25:59;2.43;;;1.87;;
10191;SDS011;17580;50.850;4.504;2022-08-19T13:28:28;2.00;;;1.90;;
10191;SDS011;17580;50.850;4.504;2022-08-19T13:31:15;1.53;;;1.53;;
10191;SDS011;17580;50.850;4.504;2022-08-19T13:34:00;2.00;;;1.90;;
10191;SDS011;17580;50.850;4.504;2022-08-19T13:36:28;1.47;;;1.37;;
10191;SDS011;17580;50.850;4.504;2022-08-19T13:38:56;1.67;;;1.60;;
10191;SDS011;17580;50.850;4.504;2022-08-19T13:41:24;3.07;;;2.10;;
10191;SDS011;17580;50.850;4.504;2022-08-19T13:43:51;1.60;;;1.60;;
10191;SDS011;17580;50.850;4.504;2022-08-19T13:46:19;2.00;;;1.90;;
10191;SDS011;17580;50.850;4.504;2022-08-19T13:48:46;1.70;;;1.60;;
10191;SDS011;17580;50.850;4.504;2022-08-19T13:51:14;1.10;;;1.10;;
10191;SDS011;17580;50.850;4.504;2022-08-19T13:53:41;1.47;;;1.40;;
10191;SDS011;17580;50.850;4.504;2022-08-19T13:56:11;1.40;;;1.30;;
10191;SDS011;17580;50.850;4.504;2022-08-19T13:58:39;1.30;;;1.30;;
10191;SDS011;17580;50.850;4.504;2022-08-19T14:01:06;1.60;;;1.50;;
10191;SDS011;17580;50.850;4.504;2022-08-19T14:03:34;1.10;;;1.10;;
10191;SDS011;17580;50.850;4.504;2022-08-19T14:06:01;1.80;;;1.70;;
10191;SDS011;17580;50.850;4.504;2022-08-19T14:08:28;1.20;;;1.20;;
10191;SDS011;17580;50.850;4.504;2022-08-19T14:10:57;1.47;;;1.47;;
10191;SDS011;17580;50.850;4.504;2022-08-19T14:13:25;2.10;;;1.90;;
10191;SDS011;17580;50.850;4.504;2022-08-19T14:15:52;2.57;;;1.23;;
10191;SDS011;17580;50.850;4.504;2022-08-19T14:18:19;1.83;;;1.43;;
10191;SDS011;17580;50.850;4.504;2022-08-19T14:20:46;1.50;;;1.50;;
10191;SDS011;17580;50.850;4.504;2022-08-19T14:23:14;1.20;;;1.20;;
10191;SDS011;17580;50.850;4.504;2022-08-19T14:25:41;1.63;;;1.57;;
10191;SDS011;17580;50.850;4.504;2022-08-19T14:28:08;1.77;;;1.60;;
10191;SDS011;17580;50.850;4.504;2022-08-19T14:30:37;1.40;;;1.40;;
10191;SDS011;17580;50.850;4.504;2022-08-19T14:33:04;1.43;;;1.40;;
10191;SDS011;17580;50.850;4.504;2022-08-19T14:35:32;9.30;;;1.90;;
10191;SDS011;17580;50.850;4.504;2022-08-19T14:38:00;1.43;;;1.33;;
10191;SDS011;17580;50.850;4.504;2022-08-19T14:40:28;2.03;;;1.63;;
10191;SDS011;17580;50.850;4.504;2022-08-19T14:42:57;1.40;;;1.13;;
10191;SDS011;17580;50.850;4.504;2022-08-19T14:45:29;1.53;;;1.40;;
10191;SDS011;17580;50.850;4.504;2022-08-19T14:47:59;1.53;;;1.43;;